Μυτιλήνη, Ελλάδα

08:57 AM EEST on Οκτώβριος 01, 2014 (GMT +0300)
Pligoni / Mitilini / Lesvos - SV8DTD | Change Station
CLOSE
Current Station
Personal Weather Stations
Location: Ελλάδα,
Elevation: 131 ft
Nearby Weather Stations

Elev 131 ft 39.07 °N, 26.58 °E | Updated 2 minutes ago

Clear
Αίθριος
68.0 ° F
Feels Like 68.0 ° F
N
3.0
Ανεμος Μεταβλητός Ανεμος from ΒΔ
Gusts 8.0 mph

Σήμερα
High -- | Low -- ° F
--% Chance of Precip.
Yesterday
High -- | Low -- ° F
Precip. -- in
7:09 AM 6:56 PM
Μηνίσκος, 44% visible
Ατμοσφαιρική Πίεση 30.15 in
Ορατότητα -9999.0 Μίλια
Σύννεφα
Σημείο Δρόσου 51 ° F
Υγρασία 55%
Rainfall 5.50 in
Snow Depth Not available.
Υπεριώδης ακτινοβολία (UV) 1.0 out of 12
Pollen Not available.
Air Quality Not available.
Flu Activity Not available.
METAR LGMT 010550Z 33004KT CAVOK 18/13 Q1021

More Conditions Fewer Conditions

Ατμοσφαιρική Πίεση 30.15 in
Ορατότητα -9999.0 Μίλια
Σύννεφα
Σημείο Δρόσου 51 ° F
Υγρασία 55%
Rainfall 5.50 in
Snow Depth Not available.
Υπεριώδης ακτινοβολία (UV) 1.0 out of 12
Pollen Not available.
Air Quality Not available.
Flu Activity Not available.
METAR LGMT 010550Z 33004KT CAVOK 18/13 Q1021

More Conditions Fewer Conditions

10-Day Weather Forecast

Almanac

Αστρονομία

Oct. 01, 2014 Rise Set
Actual Time 7:09 AM EEST 6:56 PM EEST
Civil Twilight 6:42 AM EEST 7:23 PM EEST
Nautical Twilight 6:11 AM EEST 7:54 PM EEST
Astronomical Twilight 5:40 AM EEST 8:25 PM EEST
Moon 1:51 PM EEST Χωρίς Δύση Σελήνης
Length Of Visible Light 12h 40m
Διάρκεια ημέρας
11h 47m
Tomorrow will be 2m 31s shorter.
Μηνίσκος, 44% of the Moon is Illuminated
Σήμερα
Μηνίσκος
Oct 1
Πρώτο τέταρτο
Oct 8
Πανσέληνος
Oct 15
Τελευταίο τέταρτο
Oct 23
New

Yesterday's Extremes

Country Highs Country Lows

Community

WunderPhotos

Upload Photos

1,757,875 photos uploaded!

Nearby

Snow Depth

Not available.

Earthquake Activity

City Distance Mag. Time & Date
No recent earthquake activity has been reported nearby.
Minimum magnitude displayed is 2.5.

Coastal Water Temperatures

Τοποθεσία Θερμοκρασία
No Stations Reporting

Nearby Weather Stations